createdAt,value
2019-04-21T00:00:24.198Z,53.20
2019-04-21T00:01:22.438Z,53.20
2019-04-21T00:02:29.885Z,53.20
2019-04-21T00:03:30.974Z,53.20
2019-04-21T00:04:38.033Z,53.20
2019-04-21T00:05:43.682Z,53.20
2019-04-21T00:06:45.921Z,53.30
2019-04-21T00:07:49.478Z,53.20
2019-04-21T00:08:41.427Z,53.20
2019-04-21T00:09:50.244Z,53.20
2019-04-21T00:10:46.405Z,53.20
2019-04-21T00:11:40.782Z,53.20
2019-04-21T00:12:43.085Z,53.09
2019-04-21T00:13:41.340Z,53.20
2019-04-21T00:14:35.012Z,53.09
2019-04-21T00:15:34.521Z,53.09
2019-04-21T00:16:32.146Z,53.09
2019-04-21T00:17:25.285Z,53.09
2019-04-21T00:18:23.300Z,53.09
2019-04-21T00:19:26.810Z,53.09
2019-04-21T00:20:31.048Z,53.09
2019-04-21T00:21:32.626Z,53.09
2019-04-21T00:22:34.332Z,53.09
2019-04-21T00:23:44.637Z,53.09
2019-04-21T00:24:36.391Z,53.09
2019-04-21T00:25:33.963Z,53.09
2019-04-21T00:26:36.517Z,53.00
2019-04-21T00:27:38.607Z,53.00
2019-04-21T00:28:53.683Z,53.00
2019-04-21T00:29:45.397Z,53.09
2019-04-21T00:30:44.301Z,53.09
2019-04-21T00:31:40.877Z,53.09
2019-04-21T00:32:36.896Z,53.09
2019-04-21T00:33:28.847Z,53.09
2019-04-21T00:34:23.719Z,53.09
2019-04-21T00:35:25.555Z,53.09
2019-04-21T00:36:29.665Z,53.00
2019-04-21T00:37:36.561Z,53.00
2019-04-21T00:38:51.472Z,53.00
2019-04-21T00:39:55.687Z,53.09
2019-04-21T00:40:47.910Z,53.09
2019-04-21T00:41:43.760Z,53.09
2019-04-21T00:42:43.633Z,53.09
2019-04-21T00:43:37.296Z,53.00
2019-04-21T00:44:33.031Z,53.09
2019-04-21T00:45:37.565Z,53.00
2019-04-21T00:46:36.291Z,53.09
2019-04-21T00:47:39.073Z,53.00
2019-04-21T00:48:44.091Z,53.00
2019-04-21T00:49:35.977Z,53.09
2019-04-21T00:50:51.542Z,53.00
2019-04-21T00:51:57.768Z,53.20
2019-04-21T00:52:58.090Z,53.09
2019-04-21T00:53:51.974Z,53.09
2019-04-21T00:54:52.048Z,53.09
2019-04-21T00:55:51.624Z,53.00
2019-04-21T00:56:52.623Z,53.09
2019-04-21T00:57:54.771Z,53.09
2019-04-21T00:58:48.692Z,53.09
2019-04-21T00:59:48.415Z,53.09
2019-04-21T01:00:46.505Z,53.00
2019-04-21T01:01:45.792Z,53.09
2019-04-21T01:02:53.355Z,53.00
2019-04-21T01:03:45.728Z,53.09
2019-04-21T01:04:42.837Z,53.09
2019-04-21T01:05:46.902Z,53.09
2019-04-21T01:06:49.668Z,53.00
2019-04-21T01:07:42.437Z,53.00
2019-04-21T01:08:41.036Z,53.09
2019-04-21T01:09:37.361Z,53.09
2019-04-21T01:10:35.915Z,53.00
2019-04-21T01:11:47.282Z,53.00
2019-04-21T01:12:44.422Z,53.09
2019-04-21T01:13:45.491Z,53.00
2019-04-21T01:14:50.062Z,53.00
2019-04-21T01:15:51.476Z,53.00
2019-04-21T01:16:45.770Z,53.00
2019-04-21T01:17:48.322Z,53.00
2019-04-21T01:18:47.274Z,53.00
2019-04-21T01:19:39.770Z,53.09
2019-04-21T01:20:22.525Z,53.09
2019-04-21T01:21:21.541Z,53.00
2019-04-21T01:22:21.505Z,53.00
2019-04-21T01:23:21.493Z,53.00
2019-04-21T01:24:28.585Z,53.00
2019-04-21T01:25:30.282Z,53.00
2019-04-21T01:26:34.033Z,53.00
2019-04-21T01:27:42.138Z,53.00
2019-04-21T01:28:41.364Z,53.00
2019-04-21T01:29:45.823Z,53.00
2019-04-21T01:30:43.193Z,53.00
2019-04-21T01:31:40.409Z,53.00
2019-04-21T01:32:47.352Z,53.00
2019-04-21T01:33:45.039Z,52.89
2019-04-21T01:34:45.562Z,53.00
2019-04-21T01:35:45.322Z,53.00
2019-04-21T01:36:40.040Z,53.00
2019-04-21T01:37:54.648Z,53.00
2019-04-21T01:38:52.493Z,53.00
2019-04-21T01:39:51.548Z,53.00
2019-04-21T01:40:59.097Z,53.00
2019-04-21T01:41:46.306Z,53.00
2019-04-21T01:42:45.854Z,53.00
2019-04-21T01:43:43.074Z,53.00
2019-04-21T01:45:02.348Z,53.00
2019-04-21T01:45:37.324Z,53.02
2019-04-21T01:46:40.862Z,53.00
2019-04-21T01:47:40.841Z,53.00
2019-04-21T01:48:41.559Z,52.89
2019-04-21T01:49:34.911Z,52.89
2019-04-21T01:50:42.449Z,52.89
2019-04-21T01:51:45.425Z,53.02
2019-04-21T01:52:54.611Z,52.89
2019-04-21T01:53:45.453Z,52.82
2019-04-21T01:54:45.873Z,52.80
2019-04-21T01:55:45.405Z,52.89
2019-04-21T01:56:41.852Z,52.89
2019-04-21T01:57:37.791Z,52.82
2019-04-21T01:58:34.149Z,52.89
2019-04-21T01:59:34.919Z,52.92
2019-04-21T02:00:38.970Z,52.89
2019-04-21T02:01:39.215Z,52.89
2019-04-21T02:02:49.255Z,52.80
2019-04-21T02:03:52.786Z,52.82
2019-04-21T02:04:47.439Z,52.80
2019-04-21T02:05:46.703Z,52.89
2019-04-21T02:06:44.443Z,52.82
2019-04-21T02:07:44.338Z,52.80
2019-04-21T02:08:44.827Z,52.82
2019-04-21T02:09:46.359Z,52.80
2019-04-21T02:10:46.177Z,52.82
2019-04-21T02:11:46.324Z,52.89
2019-04-21T02:12:48.797Z,52.89
2019-04-21T02:13:50.313Z,52.89
2019-04-21T02:14:50.310Z,52.89
2019-04-21T02:16:01.119Z,52.92
2019-04-21T02:16:40.468Z,52.89
2019-04-21T02:17:40.981Z,53.00
2019-04-21T02:18:38.988Z,52.89
2019-04-21T02:19:38.582Z,52.92
2019-04-21T02:20:34.519Z,52.82
2019-04-21T02:21:36.592Z,52.92
2019-04-21T02:22:59.125Z,52.92
2019-04-21T02:23:46.551Z,52.80
2019-04-21T02:24:49.671Z,52.89
2019-04-21T02:25:47.135Z,52.92
2019-04-21T02:26:42.999Z,52.89
2019-04-21T02:27:48.070Z,52.92
2019-04-21T02:28:50.030Z,52.92
2019-04-21T02:29:49.005Z,52.92
2019-04-21T02:31:00.778Z,53.02
2019-04-21T02:31:56.622Z,53.02
2019-04-21T02:36:06.172Z,52.89
2019-04-21T02:37:05.220Z,52.92
2019-04-21T02:38:00.825Z,52.82
2019-04-21T02:39:02.393Z,52.92
2019-04-21T02:39:57.370Z,52.89
2019-04-21T02:42:59.418Z,53.00
2019-04-21T02:44:08.308Z,52.92
2019-04-21T02:45:56.092Z,52.92
2019-04-21T02:47:57.325Z,52.92
2019-04-21T02:48:59.754Z,52.92
2019-04-21T02:50:45.178Z,52.92
2019-04-21T02:51:54.899Z,52.92
2019-04-21T02:52:55.527Z,52.92
2019-04-21T02:54:24.638Z,52.92
2019-04-21T02:55:51.301Z,52.82
2019-04-21T02:57:06.868Z,52.82
2019-04-21T02:57:59.518Z,52.82
2019-04-21T02:59:58.284Z,52.82
2019-04-21T03:01:17.285Z,52.82
2019-04-21T03:01:59.335Z,52.92
2019-04-21T03:03:05.772Z,52.92
2019-04-21T03:03:55.741Z,52.92
2019-04-21T03:04:53.096Z,52.82
2019-04-21T03:05:50.516Z,52.92
2019-04-21T03:08:00.775Z,52.82
2019-04-21T03:09:01.184Z,52.82
2019-04-21T03:10:53.376Z,52.92
2019-04-21T03:12:01.580Z,52.92
2019-04-21T03:12:44.338Z,52.82
2019-04-21T03:13:57.365Z,52.82
2019-04-21T03:15:59.194Z,52.82
2019-04-21T03:16:40.649Z,52.82
2019-04-21T03:18:00.372Z,52.92
2019-04-21T03:19:06.537Z,52.82
2019-04-21T03:21:00.285Z,52.92
2019-04-21T03:21:57.501Z,52.92
2019-04-21T03:22:53.526Z,52.92
2019-04-21T03:23:56.290Z,52.92
2019-04-21T03:25:50.371Z,52.82
2019-04-21T03:27:01.503Z,52.82
2019-04-21T03:27:57.313Z,52.82
2019-04-21T03:29:53.884Z,52.82
2019-04-21T03:37:52.919Z,52.82
2019-04-21T03:38:50.404Z,52.92
2019-04-21T03:40:47.504Z,52.82
2019-04-21T03:41:59.824Z,52.92
2019-04-21T03:42:48.050Z,52.92
2019-04-21T03:43:50.256Z,52.92
2019-04-21T03:47:20.781Z,52.92
2019-04-21T03:47:57.127Z,52.92
2019-04-21T03:48:51.738Z,52.82
2019-04-21T03:49:54.344Z,52.92
2019-04-21T03:50:56.212Z,52.92
2019-04-21T03:51:59.206Z,52.92
2019-04-21T03:52:53.215Z,52.92
2019-04-21T03:53:46.455Z,52.92
2019-04-21T03:54:57.814Z,52.92
2019-04-21T03:56:02.778Z,52.92
2019-04-21T03:57:13.089Z,52.92
2019-04-21T03:58:04.603Z,52.92
2019-04-21T03:59:55.692Z,52.92
2019-04-21T04:01:00.536Z,52.92
2019-04-21T04:02:07.612Z,52.92
2019-04-21T04:02:55.134Z,52.92
2019-04-21T04:04:03.707Z,52.92
2019-04-21T04:04:53.568Z,52.92
2019-04-21T04:06:58.822Z,52.92
2019-04-21T04:08:12.963Z,52.92
2019-04-21T04:09:01.485Z,52.92
2019-04-21T04:09:52.406Z,52.82
2019-04-21T04:11:12.390Z,52.82
2019-04-21T04:11:53.029Z,52.92
2019-04-21T04:12:50.354Z,52.92
2019-04-21T04:13:56.402Z,52.92
2019-04-21T04:14:55.577Z,52.92
2019-04-21T04:16:13.812Z,52.92
2019-04-21T04:16:58.532Z,52.82
2019-04-21T04:17:50.365Z,52.82
2019-04-21T04:18:52.865Z,52.92
2019-04-21T04:19:58.337Z,52.82
2019-04-21T04:20:51.673Z,52.82
2019-04-21T04:21:56.545Z,52.92
2019-04-21T04:22:55.303Z,52.92
2019-04-21T04:23:58.169Z,52.92
2019-04-21T04:25:01.006Z,52.92
2019-04-21T04:25:49.399Z,52.92
2019-04-21T04:27:59.464Z,52.92
2019-04-21T04:29:01.343Z,52.92
2019-04-21T04:29:50.321Z,52.92
2019-04-21T04:31:43.957Z,52.92
2019-04-21T04:34:02.246Z,52.92
2019-04-21T04:34:57.200Z,52.92
2019-04-21T04:39:06.784Z,52.92
2019-04-21T04:40:00.577Z,52.82
2019-04-21T04:40:57.471Z,52.82
2019-04-21T04:42:03.558Z,52.82
2019-04-21T04:42:56.225Z,52.82
2019-04-21T04:43:54.662Z,52.82
2019-04-21T04:45:05.665Z,52.82
2019-04-21T04:45:56.375Z,52.92
2019-04-21T04:46:57.026Z,52.92
2019-04-21T04:47:51.269Z,52.82
2019-04-21T04:48:51.641Z,52.82
2019-04-21T04:49:53.384Z,52.82
2019-04-21T04:50:57.029Z,52.82
2019-04-21T04:52:46.070Z,52.82
2019-04-21T04:53:47.258Z,52.82
2019-04-21T04:54:55.476Z,52.82
2019-04-21T04:55:46.037Z,52.82
2019-04-21T04:56:58.746Z,52.92
2019-04-21T04:59:24.112Z,52.82
2019-04-21T04:59:47.802Z,52.82
2019-04-21T05:00:54.662Z,52.92
2019-04-21T05:02:52.376Z,52.82
2019-04-21T05:03:56.957Z,52.72
2019-04-21T05:04:54.849Z,52.72
2019-04-21T05:06:06.615Z,52.72
2019-04-21T05:08:08.502Z,52.72
2019-04-21T05:09:07.562Z,52.72
2019-04-21T05:10:58.725Z,52.72
2019-04-21T05:12:43.852Z,52.72
2019-04-21T05:13:55.804Z,52.82
2019-04-21T05:15:50.027Z,52.82
2019-04-21T05:16:54.887Z,52.82
2019-04-21T05:18:56.004Z,52.72
2019-04-21T05:20:05.904Z,52.72
2019-04-21T05:20:52.366Z,52.82
2019-04-21T05:22:05.794Z,52.82
2019-04-21T05:22:42.361Z,52.82
2019-04-21T05:23:44.053Z,52.82
2019-04-21T05:24:37.914Z,52.82
2019-04-21T05:25:37.866Z,52.82
2019-04-21T05:26:39.101Z,52.82
2019-04-21T05:27:33.545Z,52.82
2019-04-21T05:28:32.856Z,52.82
2019-04-21T05:29:38.806Z,52.82
2019-04-21T05:30:41.981Z,52.82
2019-04-21T05:31:47.694Z,52.82
2019-04-21T05:32:45.223Z,52.82
2019-04-21T05:33:44.821Z,52.82
2019-04-21T05:34:37.304Z,52.82
2019-04-21T05:35:39.216Z,52.82
2019-04-21T05:36:42.410Z,52.82
2019-04-21T05:37:36.318Z,52.72
2019-04-21T05:38:39.211Z,52.82
2019-04-21T05:39:34.314Z,52.82
2019-04-21T05:40:34.295Z,52.82
2019-04-21T05:41:33.238Z,52.82
2019-04-21T05:42:33.791Z,52.72
2019-04-21T05:43:39.192Z,52.72
2019-04-21T05:44:54.550Z,52.72
2019-04-21T05:45:41.174Z,52.72
2019-04-21T05:46:49.245Z,52.72
2019-04-21T05:47:52.006Z,52.62
2019-04-21T05:48:39.477Z,52.62
2019-04-21T05:49:43.857Z,52.62
2019-04-21T05:50:37.780Z,52.62
2019-04-21T05:51:38.503Z,52.62
2019-04-21T05:52:37.551Z,52.51
2019-04-21T05:53:40.508Z,52.62
2019-04-21T05:55:00.866Z,52.62
2019-04-21T05:55:46.074Z,52.51
2019-04-21T05:56:40.998Z,52.62
2019-04-21T05:57:38.231Z,52.62
2019-04-21T05:58:46.637Z,52.62
2019-04-21T05:59:43.668Z,52.62
2019-04-21T06:01:03.488Z,52.62
2019-04-21T06:02:05.887Z,52.62
2019-04-21T06:02:47.118Z,52.62
2019-04-21T06:03:44.927Z,52.51
2019-04-21T06:05:05.796Z,52.51
2019-04-21T06:05:53.457Z,52.51
2019-04-21T06:06:55.498Z,52.62
2019-04-21T06:07:41.267Z,52.51
2019-04-21T06:09:03.180Z,52.51
2019-04-21T06:09:48.911Z,52.42
2019-04-21T06:10:50.883Z,52.51
2019-04-21T06:11:42.378Z,52.51
2019-04-21T06:12:43.193Z,52.51
2019-04-21T06:13:48.226Z,52.42
2019-04-21T06:14:46.872Z,52.51
2019-04-21T06:15:46.934Z,52.42
2019-04-21T06:17:44.201Z,52.42
2019-04-21T06:18:48.828Z,52.31
2019-04-21T06:19:49.631Z,52.42
2019-04-21T06:20:40.881Z,52.42
2019-04-21T06:21:39.219Z,52.31
2019-04-21T06:22:36.332Z,52.42
2019-04-21T06:23:44.737Z,52.42
2019-04-21T06:25:06.934Z,52.42
2019-04-21T06:25:55.368Z,52.31
2019-04-21T06:26:54.977Z,52.42
2019-04-21T06:27:37.735Z,52.42
2019-04-21T06:28:49.104Z,52.31
2019-04-21T06:29:43.694Z,52.31
2019-04-21T06:30:57.885Z,52.42
2019-04-21T06:34:59.113Z,52.42
2019-04-21T06:36:43.980Z,52.31
2019-04-21T06:38:53.871Z,52.31
2019-04-21T06:39:52.428Z,52.31
2019-04-21T06:40:42.459Z,52.31
2019-04-21T06:41:43.244Z,52.31
2019-04-21T06:42:40.316Z,52.31
2019-04-21T06:43:48.160Z,52.31
2019-04-21T06:44:51.486Z,52.31
2019-04-21T06:45:51.115Z,52.31
2019-04-21T06:46:40.467Z,52.22
2019-04-21T06:47:57.427Z,52.22
2019-04-21T06:48:42.769Z,52.31
2019-04-21T06:49:36.870Z,52.29
2019-04-21T06:50:46.122Z,52.29
2019-04-21T06:51:58.171Z,52.31
2019-04-21T06:52:51.945Z,52.29
2019-04-21T06:53:44.927Z,52.29
2019-04-21T06:54:47.090Z,52.39
2019-04-21T06:55:37.575Z,52.39
2019-04-21T06:57:45.679Z,52.39
2019-04-21T06:58:38.533Z,52.29
2019-04-21T06:59:38.466Z,52.39
2019-04-21T07:00:38.774Z,52.39
2019-04-21T07:01:43.449Z,52.42
2019-04-21T07:03:42.230Z,52.49
2019-04-21T07:04:47.016Z,52.39
2019-04-21T07:05:50.594Z,52.49
2019-04-21T07:06:48.221Z,52.39
2019-04-21T07:07:43.633Z,52.42
2019-04-21T07:08:47.780Z,52.39
2019-04-21T07:09:45.145Z,52.39
2019-04-21T07:10:38.499Z,52.39
2019-04-21T07:11:37.792Z,52.29
2019-04-21T07:12:43.532Z,52.39
2019-04-21T07:13:42.382Z,52.39
2019-04-21T07:15:43.946Z,52.49
2019-04-21T07:16:47.746Z,52.49
2019-04-21T07:17:38.928Z,52.49
2019-04-21T07:18:47.455Z,52.39
2019-04-21T07:19:48.048Z,52.49
2019-04-21T07:20:44.956Z,52.49
2019-04-21T07:21:43.045Z,52.49
2019-04-21T07:22:41.630Z,52.49
2019-04-21T07:23:45.878Z,52.49
2019-04-21T07:25:00.402Z,52.49
2019-04-21T07:25:38.788Z,52.39
2019-04-21T07:26:42.725Z,52.49
2019-04-21T07:27:43.058Z,52.39
2019-04-21T07:28:38.873Z,52.49
2019-04-21T07:29:56.565Z,52.49
2019-04-21T07:30:43.850Z,52.49
2019-04-21T07:31:47.232Z,52.39
2019-04-21T07:32:40.135Z,52.49
2019-04-21T07:34:38.321Z,52.49
2019-04-21T07:35:37.529Z,52.49
2019-04-21T07:36:54.919Z,52.49
2019-04-21T07:37:41.550Z,52.49
2019-04-21T07:38:41.099Z,52.49
2019-04-21T07:39:38.914Z,52.49
2019-04-21T07:40:35.343Z,52.49
2019-04-21T07:41:34.049Z,52.49
2019-04-21T07:42:33.814Z,52.39
2019-04-21T07:43:37.114Z,52.49
2019-04-21T07:44:35.014Z,52.49
2019-04-21T07:45:39.124Z,52.39
2019-04-21T07:46:31.410Z,52.49
2019-04-21T07:47:44.524Z,52.49
2019-04-21T07:48:38.107Z,52.49
2019-04-21T07:49:40.043Z,52.49
2019-04-21T07:50:38.864Z,52.49
2019-04-21T07:51:47.639Z,52.39
2019-04-21T07:52:44.992Z,52.49
2019-04-21T07:53:40.630Z,52.39
2019-04-21T07:54:49.656Z,52.39
2019-04-21T07:56:28.895Z,52.49
2019-04-21T07:57:35.223Z,52.49
2019-04-21T07:58:47.722Z,52.49
2019-04-21T07:59:48.434Z,52.49
2019-04-21T08:00:44.740Z,52.49
2019-04-21T08:01:35.544Z,52.49
2019-04-21T08:02:46.318Z,52.49
2019-04-21T08:03:43.854Z,52.39
2019-04-21T08:05:42.417Z,52.49
2019-04-21T08:06:43.876Z,52.49
2019-04-21T08:07:47.682Z,52.49
2019-04-21T08:08:37.790Z,52.49
2019-04-21T08:09:41.034Z,52.39
2019-04-21T08:10:36.244Z,52.49
2019-04-21T08:11:38.657Z,52.49
2019-04-21T08:12:37.502Z,52.49
2019-04-21T08:13:41.824Z,52.39
2019-04-21T08:14:43.584Z,52.39
2019-04-21T08:15:40.238Z,52.39
2019-04-21T08:16:39.729Z,52.39
2019-04-21T08:17:36.505Z,52.39
2019-04-21T08:18:39.543Z,52.49
2019-04-21T08:19:38.341Z,52.39
2019-04-21T08:20:34.647Z,52.39
2019-04-21T08:21:42.994Z,52.39
2019-04-21T08:22:41.306Z,52.29
2019-04-21T08:23:37.014Z,52.29
2019-04-21T08:24:45.235Z,52.29
2019-04-21T08:25:46.320Z,52.39
2019-04-21T08:26:46.286Z,52.39
2019-04-21T08:27:40.380Z,52.29
2019-04-21T08:28:39.159Z,52.39
2019-04-21T08:29:40.880Z,52.49
2019-04-21T08:30:36.298Z,52.29
2019-04-21T08:31:51.271Z,52.29
2019-04-21T08:32:57.165Z,52.39
2019-04-21T08:33:51.392Z,52.39
2019-04-21T08:34:43.163Z,52.29
2019-04-21T08:36:38.464Z,52.39
2019-04-21T08:37:37.000Z,52.39
2019-04-21T08:38:45.891Z,52.29
2019-04-21T08:39:49.749Z,52.39
2019-04-21T08:41:42.645Z,52.39
2019-04-21T08:42:38.736Z,52.49
2019-04-21T08:44:40.641Z,52.39
2019-04-21T08:45:41.455Z,52.29
2019-04-21T08:46:39.099Z,52.29
2019-04-21T08:47:39.619Z,52.29
2019-04-21T08:48:40.428Z,52.49
2019-04-21T08:49:39.183Z,52.39
2019-04-21T08:50:41.481Z,52.39
2019-04-21T08:52:44.428Z,52.39
2019-04-21T08:53:41.557Z,52.39
2019-04-21T08:54:43.542Z,52.39
2019-04-21T08:55:42.894Z,52.39
2019-04-21T08:56:34.289Z,52.39
2019-04-21T08:57:46.387Z,52.29
2019-04-21T08:58:41.558Z,52.39
2019-04-21T08:59:40.426Z,52.39
2019-04-21T09:00:40.233Z,52.39
2019-04-21T09:01:39.843Z,52.39
2019-04-21T09:03:39.557Z,52.29
2019-04-21T09:04:35.166Z,52.39
2019-04-21T09:05:36.754Z,52.39
2019-04-21T09:06:55.714Z,52.39
2019-04-21T09:07:38.864Z,52.39
2019-04-21T09:08:44.385Z,52.39
2019-04-21T09:09:47.656Z,52.29
2019-04-21T09:10:35.425Z,52.39
2019-04-21T09:11:38.877Z,52.39
2019-04-21T09:12:34.663Z,52.29
2019-04-21T09:13:37.179Z,52.29
2019-04-21T09:14:36.850Z,52.29
2019-04-21T09:15:34.976Z,52.29
2019-04-21T09:16:32.410Z,52.29
2019-04-21T09:17:28.550Z,52.29
2019-04-21T09:18:26.970Z,52.29
2019-04-21T09:19:43.952Z,52.29
2019-04-21T09:20:38.767Z,52.29
2019-04-21T09:21:40.189Z,52.19
2019-04-21T09:22:38.250Z,52.29
2019-04-21T09:23:36.172Z,52.29
2019-04-21T09:24:33.038Z,52.29
2019-04-21T09:25:40.758Z,52.29
2019-04-21T09:26:36.990Z,52.29
2019-04-21T09:27:30.763Z,52.29
2019-04-21T09:28:32.209Z,52.29
2019-04-21T09:29:26.490Z,52.29
2019-04-21T09:30:17.587Z,52.29
2019-04-21T09:31:23.947Z,52.29
2019-04-21T09:32:23.178Z,52.29
2019-04-21T09:33:18.491Z,52.29
2019-04-21T09:34:23.895Z,52.29
2019-04-21T09:35:18.811Z,52.19
2019-04-21T09:36:20.169Z,52.19
2019-04-21T09:37:28.639Z,52.29
2019-04-21T09:38:27.648Z,52.29
2019-04-21T09:39:21.801Z,52.29
2019-04-21T09:40:27.452Z,52.29
2019-04-21T09:41:22.021Z,52.29
2019-04-21T09:42:19.719Z,52.29
2019-04-21T09:43:27.280Z,52.19
2019-04-21T09:44:25.863Z,52.19
2019-04-21T09:45:17.726Z,52.29
2019-04-21T09:46:16.259Z,52.29
2019-04-21T09:47:21.272Z,52.29
2019-04-21T09:48:20.748Z,52.19
2019-04-21T09:49:23.504Z,52.19
2019-04-21T09:50:17.497Z,52.19
2019-04-21T09:51:16.065Z,52.19
2019-04-21T09:52:21.561Z,52.19
2019-04-21T09:53:26.891Z,52.19
2019-04-21T09:54:22.870Z,52.19
2019-04-21T09:55:20.797Z,52.19
2019-04-21T09:56:28.546Z,52.19
2019-04-21T09:57:29.443Z,52.19
2019-04-21T09:58:26.160Z,52.19
2019-04-21T09:59:23.592Z,52.19
2019-04-21T10:00:21.099Z,52.19
2019-04-21T10:01:25.387Z,52.19
2019-04-21T10:02:25.240Z,52.19
2019-04-21T10:03:18.001Z,52.19
2019-04-21T10:04:16.451Z,52.19
2019-04-21T10:05:16.905Z,52.19
2019-04-21T10:06:18.734Z,52.19
2019-04-21T10:07:26.396Z,52.19
2019-04-21T10:08:16.884Z,52.19
2019-04-21T10:09:19.395Z,52.19
2019-04-21T10:10:17.144Z,52.19
2019-04-21T10:11:16.467Z,52.19
2019-04-21T10:12:16.295Z,52.19
2019-04-21T10:13:17.053Z,52.19
2019-04-21T10:14:15.830Z,52.19
2019-04-21T10:15:16.509Z,52.19
2019-04-21T10:16:15.808Z,52.19
2019-04-21T10:17:15.855Z,52.19
2019-04-21T10:18:17.254Z,52.19
2019-04-21T10:19:15.775Z,52.19
2019-04-21T10:20:17.042Z,52.19
2019-04-21T10:21:15.753Z,52.19
2019-04-21T10:22:17.025Z,52.19
2019-04-21T10:23:15.815Z,52.19
2019-04-21T10:24:16.016Z,52.19
2019-04-21T10:25:16.629Z,52.19
2019-04-21T10:26:16.804Z,52.19
2019-04-21T10:27:17.024Z,52.19
2019-04-21T10:28:16.767Z,52.19
2019-04-21T10:29:22.776Z,52.19
2019-04-21T10:30:16.886Z,52.19
2019-04-21T10:31:16.732Z,52.19
2019-04-21T10:32:18.296Z,52.29
2019-04-21T10:33:16.650Z,52.19
2019-04-21T10:34:16.893Z,52.09
2019-04-21T10:35:19.075Z,52.19
2019-04-21T10:36:17.148Z,52.19
2019-04-21T10:37:16.684Z,52.19
2019-04-21T10:38:26.126Z,52.19
2019-04-21T10:39:17.705Z,52.09
2019-04-21T10:40:15.840Z,52.09
2019-04-21T10:41:15.545Z,52.09
2019-04-21T10:42:15.581Z,52.09
2019-04-21T10:43:19.103Z,52.09
2019-04-21T10:44:17.019Z,52.09
2019-04-21T10:45:16.923Z,52.09
2019-04-21T10:46:15.491Z,52.09
2019-04-21T10:47:16.589Z,52.09
2019-04-21T10:48:16.768Z,51.99
2019-04-21T10:49:16.899Z,51.99
2019-04-21T10:50:16.270Z,51.99
2019-04-21T10:51:15.430Z,51.99
2019-04-21T10:52:15.419Z,51.99
2019-04-21T10:53:16.609Z,51.99
2019-04-21T10:54:15.816Z,51.99
2019-04-21T10:55:32.106Z,51.99
2019-04-21T10:56:25.139Z,51.99
2019-04-21T10:57:16.730Z,51.99
2019-04-21T10:58:16.218Z,51.99
2019-04-21T10:59:16.241Z,51.99
2019-04-21T11:00:16.909Z,51.99
2019-04-21T11:01:16.673Z,51.99
2019-04-21T11:02:15.317Z,52.09
2019-04-21T11:03:15.306Z,51.99
2019-04-21T11:04:21.804Z,51.99
2019-04-21T11:05:16.768Z,51.99
2019-04-21T11:06:16.765Z,51.89
2019-04-21T11:07:19.195Z,51.89
2019-04-21T11:08:22.706Z,51.89
2019-04-21T11:09:16.245Z,51.89
2019-04-21T11:10:16.169Z,51.89
2019-04-21T11:11:16.223Z,51.89
2019-04-21T11:12:15.572Z,51.89
2019-04-21T11:13:15.203Z,51.99
2019-04-21T11:14:15.519Z,51.99
2019-04-21T11:15:15.184Z,51.99
2019-04-21T11:16:15.221Z,51.99
2019-04-21T11:17:16.439Z,51.99
2019-04-21T11:18:15.705Z,52.09
2019-04-21T11:19:15.946Z,52.09
2019-04-21T11:20:15.160Z,52.09
2019-04-21T11:21:16.543Z,52.09
2019-04-21T11:22:15.107Z,52.09
2019-04-21T11:23:16.672Z,52.09
2019-04-21T11:24:16.258Z,52.19
2019-04-21T11:25:15.843Z,52.09
2019-04-21T11:26:16.043Z,52.19
2019-04-21T11:27:15.098Z,52.19
2019-04-21T11:28:15.041Z,52.19
2019-04-21T11:29:15.047Z,52.19
2019-04-21T11:30:15.759Z,52.19
2019-04-21T11:31:15.497Z,52.19
2019-04-21T11:32:15.025Z,52.19
2019-04-21T11:33:15.378Z,52.19
2019-04-21T11:34:15.464Z,52.19
2019-04-21T11:35:15.102Z,52.19
2019-04-21T11:36:15.492Z,52.19
2019-04-21T11:37:16.335Z,52.19
2019-04-21T11:38:19.884Z,52.19
2019-04-21T11:39:25.630Z,52.19
2019-04-21T11:40:18.137Z,52.19
2019-04-21T11:41:16.064Z,52.19
2019-04-21T11:42:15.613Z,52.19
2019-04-21T11:43:15.752Z,52.19
2019-04-21T11:44:16.166Z,52.19
2019-04-21T11:45:14.856Z,52.19
2019-04-21T11:46:16.157Z,52.19
2019-04-21T11:47:14.840Z,52.17
2019-04-21T11:48:14.831Z,52.17
2019-04-21T11:49:15.826Z,52.19
2019-04-21T11:50:15.032Z,52.17
2019-04-21T11:51:15.234Z,52.17
2019-04-21T11:52:14.783Z,52.17
2019-04-21T11:53:14.861Z,52.17
2019-04-21T11:54:15.125Z,52.19
2019-04-21T11:55:14.758Z,52.19
2019-04-21T11:56:14.786Z,52.19
2019-04-21T11:57:22.280Z,52.19
2019-04-21T11:58:16.014Z,52.17
2019-04-21T11:59:15.548Z,52.17
2019-04-21T12:00:15.749Z,52.17
2019-04-21T12:01:15.869Z,52.17
2019-04-21T12:02:15.198Z,52.17
2019-04-21T12:03:15.693Z,52.17
2019-04-21T12:04:16.082Z,52.17
2019-04-21T12:05:15.121Z,52.17
2019-04-21T12:06:15.485Z,52.17
2019-04-21T12:07:15.444Z,52.17
2019-04-21T12:08:24.500Z,52.17
2019-04-21T12:09:16.766Z,52.17
2019-04-21T12:10:15.507Z,52.17
2019-04-21T12:11:15.852Z,52.17
2019-04-21T12:12:15.009Z,52.17
2019-04-21T12:13:14.561Z,52.17
2019-04-21T12:14:14.558Z,52.17
2019-04-21T12:15:14.544Z,52.17
2019-04-21T12:16:14.973Z,52.17
2019-04-21T12:17:14.548Z,52.17
2019-04-21T12:18:15.536Z,52.17
2019-04-21T12:19:14.636Z,52.17
2019-04-21T12:20:14.833Z,52.17
2019-04-21T12:21:15.653Z,52.17
2019-04-21T12:22:21.267Z,52.17
2019-04-21T12:23:16.336Z,52.17
2019-04-21T12:24:15.229Z,52.17
2019-04-21T12:25:15.571Z,52.17
2019-04-21T12:26:15.853Z,52.17
2019-04-21T12:27:14.418Z,52.17
2019-04-21T12:28:14.426Z,52.17
2019-04-21T12:29:14.636Z,52.17
2019-04-21T12:30:15.541Z,52.17
2019-04-21T12:31:15.489Z,52.17
2019-04-21T12:32:15.828Z,52.17
2019-04-21T12:33:14.353Z,52.17
2019-04-21T12:34:14.342Z,52.17
2019-04-21T12:35:15.659Z,52.17
2019-04-21T12:36:15.727Z,52.17
2019-04-21T12:37:15.065Z,52.17
2019-04-21T12:38:14.318Z,52.17
2019-04-21T12:39:14.904Z,52.17
2019-04-21T12:40:14.716Z,52.17
2019-04-21T12:41:14.907Z,52.17
2019-04-21T12:42:14.501Z,52.17
2019-04-21T12:43:14.729Z,52.17
2019-04-21T12:44:14.887Z,52.17
2019-04-21T12:45:15.215Z,52.17
2019-04-21T12:46:14.208Z,52.17
2019-04-21T12:47:14.323Z,52.17
2019-04-21T12:48:14.191Z,52.17
2019-04-21T12:49:14.207Z,52.17
2019-04-21T12:50:14.832Z,52.17
2019-04-21T12:51:15.464Z,52.17
2019-04-21T12:52:15.527Z,52.17
2019-04-21T12:53:15.675Z,52.17
2019-04-21T12:54:15.479Z,52.06
2019-04-21T12:55:15.411Z,52.17
2019-04-21T12:56:14.118Z,52.06
2019-04-21T12:57:14.122Z,52.17
2019-04-21T12:58:15.275Z,52.17
2019-04-21T12:59:14.926Z,52.17
2019-04-21T13:00:15.139Z,52.17
2019-04-21T13:01:14.712Z,52.17
2019-04-21T13:02:14.047Z,52.17
2019-04-21T13:03:14.266Z,52.17
2019-04-21T13:04:14.021Z,52.17
2019-04-21T13:05:14.011Z,52.17
2019-04-21T13:06:14.045Z,52.06
2019-04-21T13:07:15.292Z,52.06
2019-04-21T13:08:15.356Z,52.17
2019-04-21T13:09:16.754Z,52.06
2019-04-21T13:10:16.145Z,52.06
2019-04-21T13:11:15.021Z,52.06
2019-04-21T13:12:15.142Z,52.06
2019-04-21T13:13:14.393Z,52.06
2019-04-21T13:14:13.912Z,52.06
2019-04-21T13:15:13.930Z,52.06
2019-04-21T13:16:13.894Z,52.06
2019-04-21T13:17:15.156Z,52.06
2019-04-21T13:18:14.338Z,52.06
2019-04-21T13:19:13.865Z,51.94
2019-04-21T13:20:14.961Z,51.94
2019-04-21T13:21:14.123Z,51.94
2019-04-21T13:22:14.188Z,51.94
2019-04-21T13:23:13.934Z,51.94
2019-04-21T13:24:13.836Z,51.94
2019-04-21T13:25:14.111Z,51.94
2019-04-21T13:26:14.977Z,51.94
2019-04-21T13:27:13.772Z,51.94
2019-04-21T13:28:14.652Z,51.84
2019-04-21T13:29:14.528Z,51.84
2019-04-21T13:30:14.650Z,51.84
2019-04-21T13:31:14.088Z,51.84
2019-04-21T13:32:14.396Z,51.84
2019-04-21T13:33:13.712Z,51.84
2019-04-21T13:34:14.041Z,51.84
2019-04-21T13:35:15.053Z,51.74
2019-04-21T13:36:14.015Z,51.74
2019-04-21T13:37:15.143Z,51.74
2019-04-21T13:38:24.520Z,51.74
2019-04-21T13:39:49.105Z,51.74
2019-04-21T13:40:34.187Z,51.74
2019-04-21T13:41:29.719Z,51.74
2019-04-21T13:42:24.050Z,51.74
2019-04-21T13:43:14.936Z,51.74
2019-04-21T13:44:15.506Z,51.74
2019-04-21T13:45:14.046Z,51.74
2019-04-21T13:46:13.584Z,51.74
2019-04-21T13:47:14.542Z,51.64
2019-04-21T13:48:14.787Z,51.64
2019-04-21T13:49:13.748Z,51.64
2019-04-21T13:50:13.557Z,51.64
2019-04-21T13:51:13.586Z,51.64